Global Endeavor — 3EOJ9 — position and weather

sailwx.info

Track history (hours):
 
Tides and Currents Weather Stations Pressure Air Temp Water Temp Dewpoint Dewpoint Depression Visibility Wind Speed Wind Dir Waves Ship Positions

Global Endeavor

Last reported at 2014-Aug-19 17:26 UTC. Time now 2014-Aug-29 20:21 UTC.
Position N 46°07' W 122°58'.
Warning: this ship's position is 10 days out of date.

Length 175 m; draft 5.9 m.

Type: Cargo ship. MMSI: 356619000.

Date/timePositionNaut miles runAvg speedWind from/ knotsBaromVisibWave heightAir tempDewpointWater temp
2014-Aug-19 17:26N 46°07' W 122°58'0 0.0
2014-Aug-19 16:32N 46°07' W 122°58'0 0.0
2014-Aug-19 12:17N 46°07' W 122°58'0 0.0
2014-Aug-19 11:33N 46°07' W 122°58'0 0.0
2014-Aug-19 10:33N 46°07' W 122°58'3 2.5
2014-Aug-19 09:29N 46°08' W 123°01'8 8.8
2014-Aug-19 08:32N 46°11' W 123°12'9 9.4
2014-Aug-19 07:33N 46°11' W 123°26'9 9.1
2014-Aug-19 06:33N 46°15' W 123°37'9 8.9
2014-Aug-19 05:34N 46°12' W 123°49'0 0.2
2014-Aug-19 04:31N 46°12' W 123°48'0 0.0
2014-Aug-19 03:31N 46°12' W 123°48'0 0.0
2014-Aug-19 02:31N 46°12' W 123°48'0 0.0
2014-Aug-19 01:31N 46°12' W 123°48'0 0.0
2014-Aug-19 00:31N 46°12' W 123°48'0 0.0
2014-Aug-18 23:31N 46°12' W 123°48'0 0.2
2014-Aug-18 22:31N 46°12' W 123°49'0 0.1
2014-Aug-18 21:31N 46°12' W 123°49'0 0.0
2014-Aug-18 20:31N 46°12' W 123°49'0 0.0
2014-Aug-18 19:31N 46°12' W 123°49'0 0.0
2014-Aug-18 18:31N 46°12' W 123°49'0 0.0
2014-Aug-18 17:28N 46°12' W 123°49'0 0.2
2014-Aug-18 16:31N 46°12' W 123°48'0 0.1
2014-Aug-18 15:31N 46°12' W 123°48'0 0.0
2014-Aug-18 14:31N 46°12' W 123°48'0 0.0
2014-Aug-18 13:31N 46°12' W 123°48'0 0.1
2014-Aug-18 12:31N 46°12' W 123°48'0 0.2
2014-Aug-18 11:31N 46°12' W 123°49'0 0.0
2014-Aug-18 10:31N 46°12' W 123°49'0 0.0
2014-Aug-18 09:28N 46°12' W 123°49'0 0.0
2014-Aug-18 08:31N 46°12' W 123°49'5 5.5
2014-Aug-18 07:33N 46°12' W 123°56'9 8.5
2014-Aug-18 06:33N 46°14' W 124°08'1312.9
2014-Aug-18 05:33N 46°16' W 124°27'3213.3
2014-Aug-18 03:11N 46°27' W 125°10'  
Track history (hours):
 
Tides and Currents Weather Stations Pressure Air Temp Water Temp Dewpoint Dewpoint Depression Visibility Wind Speed Wind Dir Waves Ship Positions

Global Endeavor

Last reported at 2014-Aug-19 17:26 UTC. Time now 2014-Aug-29 20:21 UTC.
Position N 46°07' W 122°58'.
Warning: this ship's position is 10 days out of date.

Length 175 m; draft 5.9 m.

Type: Cargo ship. MMSI: 356619000.

Date/timePositionNaut miles runAvg speedWind from/ knotsBaromVisibWave heightAir tempDewpointWater temp
2014-Aug-19 17:26N 46°07' W 122°58'0 0.0
2014-Aug-19 16:32N 46°07' W 122°58'0 0.0
2014-Aug-19 12:17N 46°07' W 122°58'0 0.0
2014-Aug-19 11:33N 46°07' W 122°58'0 0.0
2014-Aug-19 10:33N 46°07' W 122°58'3 2.5
2014-Aug-19 09:29N 46°08' W 123°01'8 8.8
2014-Aug-19 08:32N 46°11' W 123°12'9 9.4
2014-Aug-19 07:33N 46°11' W 123°26'9 9.1
2014-Aug-19 06:33N 46°15' W 123°37'9 8.9
2014-Aug-19 05:34N 46°12' W 123°49'0 0.2
2014-Aug-19 04:31N 46°12' W 123°48'0 0.0
2014-Aug-19 03:31N 46°12' W 123°48'0 0.0
2014-Aug-19 02:31N 46°12' W 123°48'0 0.0
2014-Aug-19 01:31N 46°12' W 123°48'0 0.0
2014-Aug-19 00:31N 46°12' W 123°48'0 0.0
2014-Aug-18 23:31N 46°12' W 123°48'0 0.2
2014-Aug-18 22:31N 46°12' W 123°49'0 0.1
2014-Aug-18 21:31N 46°12' W 123°49'0 0.0
2014-Aug-18 20:31N 46°12' W 123°49'0 0.0
2014-Aug-18 19:31N 46°12' W 123°49'0 0.0
2014-Aug-18 18:31N 46°12' W 123°49'0 0.0
2014-Aug-18 17:28N 46°12' W 123°49'0 0.2
2014-Aug-18 16:31N 46°12' W 123°48'0 0.1
2014-Aug-18 15:31N 46°12' W 123°48'0 0.0
2014-Aug-18 14:31N 46°12' W 123°48'0 0.0
2014-Aug-18 13:31N 46°12' W 123°48'0 0.1
2014-Aug-18 12:31N 46°12' W 123°48'0 0.2
2014-Aug-18 11:31N 46°12' W 123°49'0 0.0
2014-Aug-18 10:31N 46°12' W 123°49'0 0.0
2014-Aug-18 09:28N 46°12' W 123°49'0 0.0
2014-Aug-18 08:31N 46°12' W 123°49'5 5.5
2014-Aug-18 07:33N 46°12' W 123°56'9 8.5
2014-Aug-18 06:33N 46°14' W 124°08'1312.9
2014-Aug-18 05:33N 46°16' W 124°27'3213.3
2014-Aug-18 03:11N 46°27' W 125°10'  

Dump ship's entire track history